sensor_id;sensor_type;location;lat;lon;timestamp;pressure;altitude;pressure_sealevel;temperature;humidity
31873;BME280;22407;42.820;23.374;2022-08-07T00:00:20;95463.44;;;20.23;68.96
31873;BME280;22407;42.820;23.374;2022-08-07T00:02:49;95460.14;;;20.04;69.54
31873;BME280;22407;42.820;23.374;2022-08-07T00:05:17;95461.95;;;19.97;69.97
31873;BME280;22407;42.820;23.374;2022-08-07T00:07:46;95469.33;;;19.81;70.61
31873;BME280;22407;42.820;23.374;2022-08-07T00:10:15;95458.37;;;19.61;71.15
31873;BME280;22407;42.820;23.374;2022-08-07T00:12:44;95467.02;;;19.68;71.13
31873;BME280;22407;42.820;23.374;2022-08-07T00:15:13;95467.61;;;19.63;71.33
31873;BME280;22407;42.820;23.374;2022-08-07T00:17:42;95471.11;;;19.46;72.02
31873;BME280;22407;42.820;23.374;2022-08-07T00:20:11;95465.00;;;19.31;72.87
31873;BME280;22407;42.820;23.374;2022-08-07T00:22:40;95469.88;;;19.20;73.20
31873;BME280;22407;42.820;23.374;2022-08-07T00:25:09;95476.97;;;19.39;72.44
31873;BME280;22407;42.820;23.374;2022-08-07T00:27:38;95477.91;;;19.42;72.30
31873;BME280;22407;42.820;23.374;2022-08-07T00:30:08;95482.77;;;19.42;72.20
31873;BME280;22407;42.820;23.374;2022-08-07T00:32:37;95475.90;;;19.51;71.83
31873;BME280;22407;42.820;23.374;2022-08-07T00:35:06;95468.88;;;19.67;71.21
31873;BME280;22407;42.820;23.374;2022-08-07T00:37:35;95469.29;;;19.64;71.72
31873;BME280;22407;42.820;23.374;2022-08-07T00:40:04;95477.17;;;19.55;71.99
31873;BME280;22407;42.820;23.374;2022-08-07T00:42:33;95481.84;;;19.57;71.72
31873;BME280;22407;42.820;23.374;2022-08-07T00:45:03;95482.94;;;19.62;71.24
31873;BME280;22407;42.820;23.374;2022-08-07T00:47:32;95482.94;;;19.73;71.45
31873;BME280;22407;42.820;23.374;2022-08-07T00:50:02;95476.95;;;19.78;71.78
31873;BME280;22407;42.820;23.374;2022-08-07T00:52:31;95475.56;;;19.71;71.67
31873;BME280;22407;42.820;23.374;2022-08-07T00:55:00;95480.63;;;19.70;72.19
31873;BME280;22407;42.820;23.374;2022-08-07T00:57:31;95486.14;;;19.51;72.87
31873;BME280;22407;42.820;23.374;2022-08-07T01:00:00;95481.73;;;19.54;72.91
31873;BME280;22407;42.820;23.374;2022-08-07T01:02:29;95477.29;;;19.68;72.15
31873;BME280;22407;42.820;23.374;2022-08-07T01:04:59;95477.79;;;19.39;73.13
31873;BME280;22407;42.820;23.374;2022-08-07T01:07:28;95475.67;;;19.46;73.22
31873;BME280;22407;42.820;23.374;2022-08-07T01:09:57;95474.84;;;19.34;73.52
31873;BME280;22407;42.820;23.374;2022-08-07T01:12:26;95479.53;;;19.26;74.17
31873;BME280;22407;42.820;23.374;2022-08-07T01:14:56;95486.28;;;19.43;73.88
31873;BME280;22407;42.820;23.374;2022-08-07T01:17:26;95484.15;;;19.21;74.35
31873;BME280;22407;42.820;23.374;2022-08-07T01:20:01;95488.25;;;19.17;74.10
31873;BME280;22407;42.820;23.374;2022-08-07T01:22:28;95482.05;;;19.06;75.53
31873;BME280;22407;42.820;23.374;2022-08-07T01:24:58;95485.75;;;19.04;75.78
31873;BME280;22407;42.820;23.374;2022-08-07T01:27:27;95485.31;;;19.22;74.77
31873;BME280;22407;42.820;23.374;2022-08-07T01:29:56;95492.98;;;19.26;74.58
31873;BME280;22407;42.820;23.374;2022-08-07T01:32:25;95495.98;;;19.37;73.65
31873;BME280;22407;42.820;23.374;2022-08-07T01:34:54;95502.08;;;19.35;74.26
31873;BME280;22407;42.820;23.374;2022-08-07T01:37:24;95515.20;;;19.34;74.26
31873;BME280;22407;42.820;23.374;2022-08-07T01:39:53;95522.20;;;19.29;74.53
31873;BME280;22407;42.820;23.374;2022-08-07T01:42:24;95531.66;;;19.46;74.53
31873;BME280;22407;42.820;23.374;2022-08-07T01:44:53;95538.38;;;19.57;73.38
31873;BME280;22407;42.820;23.374;2022-08-07T01:47:23;95554.09;;;19.64;73.47
31873;BME280;22407;42.820;23.374;2022-08-07T01:49:52;95554.73;;;19.77;73.54
31873;BME280;22407;42.820;23.374;2022-08-07T01:52:23;95554.91;;;20.03;71.46
31873;BME280;22407;42.820;23.374;2022-08-07T01:54:54;95550.73;;;20.88;66.87
31873;BME280;22407;42.820;23.374;2022-08-07T01:57:29;95546.09;;;21.43;65.20
31873;BME280;22407;42.820;23.374;2022-08-07T02:00:04;95556.21;;;21.92;63.90
31873;BME280;22407;42.820;23.374;2022-08-07T02:02:44;95562.73;;;22.14;64.08
31873;BME280;22407;42.820;23.374;2022-08-07T02:05:17;95558.45;;;22.22;65.41
31873;BME280;22407;42.820;23.374;2022-08-07T02:07:51;95553.72;;;21.84;73.47
31873;BME280;22407;42.820;23.374;2022-08-07T02:10:23;95531.15;;;21.48;78.62
31873;BME280;22407;42.820;23.374;2022-08-07T02:12:55;95508.31;;;20.99;83.60
31873;BME280;22407;42.820;23.374;2022-08-07T02:15:26;95494.66;;;20.77;85.77
31873;BME280;22407;42.820;23.374;2022-08-07T02:17:56;95481.42;;;20.58;86.05
31873;BME280;22407;42.820;23.374;2022-08-07T02:20:26;95467.75;;;20.35;87.38
31873;BME280;22407;42.820;23.374;2022-08-07T02:23:00;95462.72;;;20.25;88.70
31873;BME280;22407;42.820;23.374;2022-08-07T02:25:31;95501.66;;;20.16;91.00
31873;BME280;22407;42.820;23.374;2022-08-07T02:28:01;95508.53;;;20.25;90.06
31873;BME280;22407;42.820;23.374;2022-08-07T02:30:35;95510.61;;;20.06;89.77
31873;BME280;22407;42.820;23.374;2022-08-07T02:33:07;95503.06;;;19.95;87.99
31873;BME280;22407;42.820;23.374;2022-08-07T02:35:37;95500.28;;;19.99;89.76
31873;BME280;22407;42.820;23.374;2022-08-07T02:38:08;95513.86;;;20.12;89.62
31873;BME280;22407;42.820;23.374;2022-08-07T02:40:38;95518.39;;;19.94;89.65
31873;BME280;22407;42.820;23.374;2022-08-07T02:43:08;95528.98;;;19.96;91.38
31873;BME280;22407;42.820;23.374;2022-08-07T02:45:39;95528.56;;;19.81;93.78
31873;BME280;22407;42.820;23.374;2022-08-07T02:48:09;95528.75;;;19.69;94.48
31873;BME280;22407;42.820;23.374;2022-08-07T02:50:40;95534.20;;;19.65;95.16
31873;BME280;22407;42.820;23.374;2022-08-07T02:53:14;95522.84;;;19.70;94.74
31873;BME280;22407;42.820;23.374;2022-08-07T02:55:46;95516.11;;;19.70;95.28
31873;BME280;22407;42.820;23.374;2022-08-07T02:58:17;95517.94;;;19.73;91.77
31873;BME280;22407;42.820;23.374;2022-08-07T03:00:49;95520.41;;;19.86;90.99
31873;BME280;22407;42.820;23.374;2022-08-07T03:03:19;95519.41;;;20.04;90.51
31873;BME280;22407;42.820;23.374;2022-08-07T03:05:51;95522.59;;;20.03;90.25
31873;BME280;22407;42.820;23.374;2022-08-07T03:08:21;95516.34;;;19.96;90.60
31873;BME280;22407;42.820;23.374;2022-08-07T03:10:50;95520.86;;;19.89;91.82
31873;BME280;22407;42.820;23.374;2022-08-07T03:13:19;95514.28;;;19.81;92.09
31873;BME280;22407;42.820;23.374;2022-08-07T03:15:49;95521.49;;;19.70;93.08
31873;BME280;22407;42.820;23.374;2022-08-07T03:18:19;95522.44;;;19.94;93.34
31873;BME280;22407;42.820;23.374;2022-08-07T03:20:49;95521.61;;;19.94;94.35
31873;BME280;22407;42.820;23.374;2022-08-07T03:23:19;95527.81;;;19.66;95.34
31873;BME280;22407;42.820;23.374;2022-08-07T03:25:49;95527.44;;;19.48;96.55
31873;BME280;22407;42.820;23.374;2022-08-07T03:28:19;95530.42;;;19.59;95.31
31873;BME280;22407;42.820;23.374;2022-08-07T03:30:49;95540.75;;;19.77;96.71
31873;BME280;22407;42.820;23.374;2022-08-07T03:33:20;95547.67;;;19.76;96.21
31873;BME280;22407;42.820;23.374;2022-08-07T03:35:49;95554.45;;;19.82;94.70
31873;BME280;22407;42.820;23.374;2022-08-07T03:38:20;95548.42;;;19.70;96.73
31873;BME280;22407;42.820;23.374;2022-08-07T03:40:50;95539.93;;;19.77;95.63
31873;BME280;22407;42.820;23.374;2022-08-07T03:43:19;95537.70;;;19.98;93.53
31873;BME280;22407;42.820;23.374;2022-08-07T03:45:48;95541.59;;;20.06;93.26
31873;BME280;22407;42.820;23.374;2022-08-07T03:48:17;95539.91;;;20.05;93.54
31873;BME280;22407;42.820;23.374;2022-08-07T03:50:47;95540.20;;;19.89;93.47
31873;BME280;22407;42.820;23.374;2022-08-07T03:53:17;95533.77;;;19.83;95.65
31873;BME280;22407;42.820;23.374;2022-08-07T03:55:46;95529.20;;;19.83;96.16
31873;BME280;22407;42.820;23.374;2022-08-07T03:58:19;95528.23;;;19.91;94.79
31873;BME280;22407;42.820;23.374;2022-08-07T04:00:49;95531.38;;;20.01;94.62
31873;BME280;22407;42.820;23.374;2022-08-07T04:03:20;95522.47;;;20.01;94.46
31873;BME280;22407;42.820;23.374;2022-08-07T04:05:49;95529.69;;;20.11;93.94
31873;BME280;22407;42.820;23.374;2022-08-07T04:08:18;95532.72;;;20.12;95.32
31873;BME280;22407;42.820;23.374;2022-08-07T04:10:48;95532.67;;;20.23;93.70
31873;BME280;22407;42.820;23.374;2022-08-07T04:13:18;95534.36;;;20.13;94.29
31873;BME280;22407;42.820;23.374;2022-08-07T04:15:48;95534.31;;;20.24;93.75
31873;BME280;22407;42.820;23.374;2022-08-07T04:18:17;95532.81;;;20.32;92.47
31873;BME280;22407;42.820;23.374;2022-08-07T04:20:46;95544.30;;;20.30;91.97
31873;BME280;22407;42.820;23.374;2022-08-07T04:23:16;95540.79;;;20.54;91.04
31873;BME280;22407;42.820;23.374;2022-08-07T04:25:47;95551.96;;;20.61;89.09
31873;BME280;22407;42.820;23.374;2022-08-07T04:28:16;95550.77;;;20.71;86.92
31873;BME280;22407;42.820;23.374;2022-08-07T04:30:47;95543.35;;;20.86;85.72
31873;BME280;22407;42.820;23.374;2022-08-07T04:33:16;95547.05;;;21.02;86.98
31873;BME280;22407;42.820;23.374;2022-08-07T04:35:47;95551.30;;;21.08;87.92
31873;BME280;22407;42.820;23.374;2022-08-07T04:38:16;95549.19;;;21.34;87.29
31873;BME280;22407;42.820;23.374;2022-08-07T04:40:46;95558.94;;;21.41;85.13
31873;BME280;22407;42.820;23.374;2022-08-07T04:43:17;95557.59;;;21.41;84.21
31873;BME280;22407;42.820;23.374;2022-08-07T04:45:57;95551.30;;;21.52;83.54
31873;BME280;22407;42.820;23.374;2022-08-07T04:48:50;95550.61;;;21.67;83.13
31873;BME280;22407;42.820;23.374;2022-08-07T04:51:23;95551.84;;;21.78;81.78
31873;BME280;22407;42.820;23.374;2022-08-07T04:56:29;95553.30;;;22.00;80.02
31873;BME280;22407;42.820;23.374;2022-08-07T04:59:05;95555.04;;;22.04;79.14
31873;BME280;22407;42.820;23.374;2022-08-07T05:01:48;95555.55;;;22.10;78.80
31873;BME280;22407;42.820;23.374;2022-08-07T05:04:21;95560.23;;;22.12;79.04
31873;BME280;22407;42.820;23.374;2022-08-07T05:12:18;95563.78;;;22.26;80.65
31873;BME280;22407;42.820;23.374;2022-08-07T05:14:47;95564.94;;;22.28;79.66
31873;BME280;22407;42.820;23.374;2022-08-07T05:17:19;95571.55;;;22.18;79.62
31873;BME280;22407;42.820;23.374;2022-08-07T05:19:51;95574.26;;;22.18;80.43
31873;BME280;22407;42.820;23.374;2022-08-07T05:22:22;95570.30;;;22.21;80.81
31873;BME280;22407;42.820;23.374;2022-08-07T05:24:52;95580.00;;;22.26;79.58
31873;BME280;22407;42.820;23.374;2022-08-07T05:27:24;95577.72;;;22.30;77.78
31873;BME280;22407;42.820;23.374;2022-08-07T05:29:55;95574.78;;;22.31;77.73
31873;BME280;22407;42.820;23.374;2022-08-07T05:32:25;95577.36;;;22.42;76.88
31873;BME280;22407;42.820;23.374;2022-08-07T05:34:55;95584.75;;;22.51;76.49
31873;BME280;22407;42.820;23.374;2022-08-07T05:37:25;95586.38;;;22.58;76.42
31873;BME280;22407;42.820;23.374;2022-08-07T05:39:54;95594.80;;;22.95;73.96
31873;BME280;22407;42.820;23.374;2022-08-07T05:42:25;95587.25;;;23.65;71.61
31873;BME280;22407;42.820;23.374;2022-08-07T05:44:54;95575.12;;;24.86;67.13
31873;BME280;22407;42.820;23.374;2022-08-07T05:47:23;95576.19;;;25.95;62.76
31873;BME280;22407;42.820;23.374;2022-08-07T05:49:52;95575.28;;;26.98;58.58
31873;BME280;22407;42.820;23.374;2022-08-07T05:52:22;95583.73;;;27.51;56.68
31873;BME280;22407;42.820;23.374;2022-08-07T05:54:50;95587.27;;;28.28;53.94
31873;BME280;22407;42.820;23.374;2022-08-07T05:57:20;95593.02;;;29.05;51.81
31873;BME280;22407;42.820;23.374;2022-08-07T05:59:52;95590.63;;;29.77;48.49
31873;BME280;22407;42.820;23.374;2022-08-07T06:02:24;95588.77;;;30.45;47.14
31873;BME280;22407;42.820;23.374;2022-08-07T06:04:56;95596.05;;;31.11;46.21
31873;BME280;22407;42.820;23.374;2022-08-07T06:07:27;95597.38;;;31.67;44.02
31873;BME280;22407;42.820;23.374;2022-08-07T06:09:56;95597.14;;;31.86;43.13
31873;BME280;22407;42.820;23.374;2022-08-07T06:12:26;95597.19;;;32.48;42.67
31873;BME280;22407;42.820;23.374;2022-08-07T06:14:57;95598.86;;;32.69;41.71
31873;BME280;22407;42.820;23.374;2022-08-07T06:17:26;95593.84;;;32.97;42.32
31873;BME280;22407;42.820;23.374;2022-08-07T06:19:55;95593.63;;;31.99;43.52
31873;BME280;22407;42.820;23.374;2022-08-07T06:22:26;95598.39;;;31.45;44.64
31873;BME280;22407;42.820;23.374;2022-08-07T06:24:59;95588.36;;;31.82;44.57
31873;BME280;22407;42.820;23.374;2022-08-07T06:27:28;95591.43;;;32.29;41.37
31873;BME280;22407;42.820;23.374;2022-08-07T06:29:57;95599.12;;;32.63;41.70
31873;BME280;22407;42.820;23.374;2022-08-07T06:32:27;95598.31;;;32.44;41.28
31873;BME280;22407;42.820;23.374;2022-08-07T06:34:58;95586.48;;;32.51;41.23
31873;BME280;22407;42.820;23.374;2022-08-07T06:37:27;95592.25;;;32.29;41.09
31873;BME280;22407;42.820;23.374;2022-08-07T06:39:56;95588.16;;;32.19;41.85
31873;BME280;22407;42.820;23.374;2022-08-07T06:42:27;95591.16;;;32.20;42.01
31873;BME280;22407;42.820;23.374;2022-08-07T06:44:58;95584.01;;;32.04;42.15
31873;BME280;22407;42.820;23.374;2022-08-07T06:47:27;95586.84;;;31.36;43.22
31873;BME280;22407;42.820;23.374;2022-08-07T06:49:57;95585.57;;;30.96;44.60
31873;BME280;22407;42.820;23.374;2022-08-07T06:52:29;95591.17;;;30.79;45.21
31873;BME280;22407;42.820;23.374;2022-08-07T06:54:59;95585.70;;;30.06;45.66
31873;BME280;22407;42.820;23.374;2022-08-07T06:57:30;95601.91;;;29.61;47.09
31873;BME280;22407;42.820;23.374;2022-08-07T07:00:00;95594.55;;;30.16;46.52
31873;BME280;22407;42.820;23.374;2022-08-07T07:02:30;95591.02;;;30.93;44.54
31873;BME280;22407;42.820;23.374;2022-08-07T07:04:59;95594.97;;;30.73;44.13
31873;BME280;22407;42.820;23.374;2022-08-07T07:07:28;95604.89;;;30.11;45.23
31873;BME280;22407;42.820;23.374;2022-08-07T07:09:57;95608.71;;;30.08;46.15
31873;BME280;22407;42.820;23.374;2022-08-07T07:12:47;95610.84;;;30.03;45.63
31873;BME280;22407;42.820;23.374;2022-08-07T07:15:27;95605.18;;;30.42;44.51
31873;BME280;22407;42.820;23.374;2022-08-07T07:18:00;95595.52;;;30.69;45.14
31873;BME280;22407;42.820;23.374;2022-08-07T07:20:36;95611.15;;;30.07;44.66
31873;BME280;22407;42.820;23.374;2022-08-07T07:23:06;95613.91;;;29.82;46.30
31873;BME280;22407;42.820;23.374;2022-08-07T07:25:38;95606.41;;;30.62;43.69
31873;BME280;22407;42.820;23.374;2022-08-07T07:28:24;95599.44;;;31.39;42.36
31873;BME280;22407;42.820;23.374;2022-08-07T07:30:56;95594.42;;;31.94;40.06
31873;BME280;22407;42.820;23.374;2022-08-07T07:33:27;95608.19;;;32.33;38.91
31873;BME280;22407;42.820;23.374;2022-08-07T07:35:59;95609.17;;;31.73;40.52
31873;BME280;22407;42.820;23.374;2022-08-07T07:38:30;95602.80;;;31.44;41.88
31873;BME280;22407;42.820;23.374;2022-08-07T07:41:03;95600.12;;;31.77;40.10
31873;BME280;22407;42.820;23.374;2022-08-07T07:43:33;95611.03;;;31.49;41.55
31873;BME280;22407;42.820;23.374;2022-08-07T07:46:03;95612.27;;;32.02;40.75
31873;BME280;22407;42.820;23.374;2022-08-07T07:48:34;95609.56;;;32.61;38.84
31873;BME280;22407;42.820;23.374;2022-08-07T07:51:05;95614.23;;;32.70;38.14
31873;BME280;22407;42.820;23.374;2022-08-07T07:53:36;95608.15;;;32.97;37.89
31873;BME280;22407;42.820;23.374;2022-08-07T07:56:07;95606.83;;;33.57;37.67
31873;BME280;22407;42.820;23.374;2022-08-07T07:58:37;95616.64;;;33.16;36.98
31873;BME280;22407;42.820;23.374;2022-08-07T08:01:08;95612.03;;;32.26;38.89
31873;BME280;22407;42.820;23.374;2022-08-07T08:03:39;95622.08;;;30.32;43.11
31873;BME280;22407;42.820;23.374;2022-08-07T08:06:09;95624.39;;;30.20;43.88
31873;BME280;22407;42.820;23.374;2022-08-07T08:08:41;95619.41;;;30.39;42.60
31873;BME280;22407;42.820;23.374;2022-08-07T08:11:10;95624.02;;;30.36;42.47
31873;BME280;22407;42.820;23.374;2022-08-07T08:13:42;95614.10;;;30.62;42.00
31873;BME280;22407;42.820;23.374;2022-08-07T08:16:18;95613.25;;;31.02;40.23
31873;BME280;22407;42.820;23.374;2022-08-07T08:18:47;95610.95;;;31.36;40.83
31873;BME280;22407;42.820;23.374;2022-08-07T08:21:17;95616.89;;;31.94;40.85
31873;BME280;22407;42.820;23.374;2022-08-07T08:24:05;95620.82;;;32.39;39.75
31873;BME280;22407;42.820;23.374;2022-08-07T08:26:44;95620.30;;;32.60;37.95
31873;BME280;22407;42.820;23.374;2022-08-07T08:29:42;95611.76;;;32.41;38.72
31873;BME280;22407;42.820;23.374;2022-08-07T08:32:16;95601.61;;;32.23;38.85
31873;BME280;22407;42.820;23.374;2022-08-07T08:34:46;95598.30;;;32.62;38.55
31873;BME280;22407;42.820;23.374;2022-08-07T08:37:18;95594.71;;;32.82;37.53
31873;BME280;22407;42.820;23.374;2022-08-07T08:39:47;95602.69;;;32.53;37.91
31873;BME280;22407;42.820;23.374;2022-08-07T08:42:29;95594.45;;;32.07;38.40
31873;BME280;22407;42.820;23.374;2022-08-07T08:53:46;95602.75;;;33.46;36.86
31873;BME280;22407;42.820;23.374;2022-08-07T08:56:29;95597.62;;;33.32;35.93
31873;BME280;22407;42.820;23.374;2022-08-07T08:59:14;95588.87;;;33.12;35.87
31873;BME280;22407;42.820;23.374;2022-08-07T09:07:10;95601.58;;;32.82;35.84
31873;BME280;22407;42.820;23.374;2022-08-07T09:10:12;95598.56;;;32.15;36.75
31873;BME280;22407;42.820;23.374;2022-08-07T09:24:46;95596.09;;;32.34;35.62
31873;BME280;22407;42.820;23.374;2022-08-07T09:26:45;95591.43;;;32.01;36.76
31873;BME280;22407;42.820;23.374;2022-08-07T09:29:23;95578.44;;;31.70;37.00
31873;BME280;22407;42.820;23.374;2022-08-07T09:34:43;95564.52;;;32.10;36.49
31873;BME280;22407;42.820;23.374;2022-08-07T09:37:24;95562.04;;;32.29;36.10
31873;BME280;22407;42.820;23.374;2022-08-07T09:42:59;95566.73;;;32.44;35.35
31873;BME280;22407;42.820;23.374;2022-08-07T09:45:57;95565.07;;;32.56;36.54
31873;BME280;22407;42.820;23.374;2022-08-07T09:54:03;95555.70;;;31.02;38.09
31873;BME280;22407;42.820;23.374;2022-08-07T09:56:44;95558.95;;;30.48;38.82
31873;BME280;22407;42.820;23.374;2022-08-07T09:59:32;95564.66;;;30.42;38.94
31873;BME280;22407;42.820;23.374;2022-08-07T10:13:26;95536.73;;;31.68;37.69
31873;BME280;22407;42.820;23.374;2022-08-07T10:16:19;95528.04;;;32.02;35.42
31873;BME280;22407;42.820;23.374;2022-08-07T10:19:04;95524.38;;;32.71;36.45
31873;BME280;22407;42.820;23.374;2022-08-07T10:22:04;95528.88;;;33.27;35.83
31873;BME280;22407;42.820;23.374;2022-08-07T10:27:35;95543.29;;;33.61;34.51
31873;BME280;22407;42.820;23.374;2022-08-07T10:30:04;95538.52;;;33.19;34.91
31873;BME280;22407;42.820;23.374;2022-08-07T10:41:31;95532.92;;;32.64;35.57
31873;BME280;22407;42.820;23.374;2022-08-07T10:43:58;95533.71;;;32.80;34.86
31873;BME280;22407;42.820;23.374;2022-08-07T10:46:29;95548.88;;;32.37;35.99
31873;BME280;22407;42.820;23.374;2022-08-07T10:49:22;95556.27;;;32.34;36.94
31873;BME280;22407;42.820;23.374;2022-08-07T10:52:01;95550.78;;;32.57;36.76
31873;BME280;22407;42.820;23.374;2022-08-07T10:54:45;95560.89;;;32.82;35.74
31873;BME280;22407;42.820;23.374;2022-08-07T11:00:12;95551.03;;;32.78;35.95
31873;BME280;22407;42.820;23.374;2022-08-07T11:05:35;95554.03;;;34.02;35.19
31873;BME280;22407;42.820;23.374;2022-08-07T11:08:28;95551.59;;;33.48;34.46
31873;BME280;22407;42.820;23.374;2022-08-07T11:16:23;95550.81;;;32.16;37.01
31873;BME280;22407;42.820;23.374;2022-08-07T11:19:04;95553.78;;;31.94;37.94
31873;BME280;22407;42.820;23.374;2022-08-07T11:21:43;95542.03;;;32.11;38.00
31873;BME280;22407;42.820;23.374;2022-08-07T11:24:21;95540.92;;;32.12;36.86
31873;BME280;22407;42.820;23.374;2022-08-07T11:29:37;95524.17;;;32.16;36.36
31873;BME280;22407;42.820;23.374;2022-08-07T11:32:17;95521.92;;;32.67;35.86
31873;BME280;22407;42.820;23.374;2022-08-07T11:34:50;95522.00;;;33.27;35.22
31873;BME280;22407;42.820;23.374;2022-08-07T11:48:23;95539.54;;;32.40;35.84
31873;BME280;22407;42.820;23.374;2022-08-07T11:59:23;95553.08;;;31.27;37.99
31873;BME280;22407;42.820;23.374;2022-08-07T12:07:43;95556.30;;;31.09;39.31
31873;BME280;22407;42.820;23.374;2022-08-07T12:10:22;95554.74;;;30.78;40.75
31873;BME280;22407;42.820;23.374;2022-08-07T12:13:05;95550.44;;;29.80;43.07
31873;BME280;22407;42.820;23.374;2022-08-07T12:15:29;95559.34;;;29.19;45.05
31873;BME280;22407;42.820;23.374;2022-08-07T12:18:00;95556.41;;;29.03;45.71
31873;BME280;22407;42.820;23.374;2022-08-07T12:20:35;95558.08;;;29.07;45.70
31873;BME280;22407;42.820;23.374;2022-08-07T12:25:51;95557.51;;;29.24;46.16
31873;BME280;22407;42.820;23.374;2022-08-07T12:31:20;95558.30;;;29.72;46.43
31873;BME280;22407;42.820;23.374;2022-08-07T12:33:48;95551.22;;;29.76;45.87
31873;BME280;22407;42.820;23.374;2022-08-07T12:36:19;95553.31;;;29.66;45.35
31873;BME280;22407;42.820;23.374;2022-08-07T12:38:49;95548.48;;;29.51;45.41
31873;BME280;22407;42.820;23.374;2022-08-07T12:41:22;95535.23;;;29.38;45.33
31873;BME280;22407;42.820;23.374;2022-08-07T12:43:53;95538.55;;;29.42;45.44
31873;BME280;22407;42.820;23.374;2022-08-07T12:52:13;95529.45;;;31.08;41.70
31873;BME280;22407;42.820;23.374;2022-08-07T12:57:31;95524.42;;;32.63;38.48
31873;BME280;22407;42.820;23.374;2022-08-07T13:00:03;95515.92;;;32.57;39.28
31873;BME280;22407;42.820;23.374;2022-08-07T13:03:06;95521.99;;;32.03;40.22
31873;BME280;22407;42.820;23.374;2022-08-07T13:05:58;95523.88;;;31.84;42.34
31873;BME280;22407;42.820;23.374;2022-08-07T13:14:06;95515.60;;;31.51;37.82
31873;BME280;22407;42.820;23.374;2022-08-07T13:16:46;95511.20;;;31.45;38.11
31873;BME280;22407;42.820;23.374;2022-08-07T13:22:14;95508.50;;;32.29;36.02
31873;BME280;22407;42.820;23.374;2022-08-07T13:25:09;95508.19;;;32.64;35.97
31873;BME280;22407;42.820;23.374;2022-08-07T13:27:50;95493.64;;;32.59;36.06
31873;BME280;22407;42.820;23.374;2022-08-07T13:30:21;95497.25;;;31.72;36.59
31873;BME280;22407;42.820;23.374;2022-08-07T13:33:15;95494.77;;;31.70;37.08
31873;BME280;22407;42.820;23.374;2022-08-07T13:41:11;95504.11;;;30.83;39.20
31873;BME280;22407;42.820;23.374;2022-08-07T13:43:42;95517.31;;;30.09;40.92
31873;BME280;22407;42.820;23.374;2022-08-07T13:46:13;95519.87;;;29.61;42.17
31873;BME280;22407;42.820;23.374;2022-08-07T13:48:45;95528.55;;;29.53;42.31
31873;BME280;22407;42.820;23.374;2022-08-07T13:51:16;95528.59;;;29.56;42.74
31873;BME280;22407;42.820;23.374;2022-08-07T13:53:59;95531.83;;;29.77;42.38
31873;BME280;22407;42.820;23.374;2022-08-07T13:56:21;95533.30;;;29.90;41.76
31873;BME280;22407;42.820;23.374;2022-08-07T13:58:52;95538.65;;;29.75;42.31
31873;BME280;22407;42.820;23.374;2022-08-07T14:01:43;95533.19;;;29.77;42.33
31873;BME280;22407;42.820;23.374;2022-08-07T14:04:10;95537.86;;;29.79;42.10
31873;BME280;22407;42.820;23.374;2022-08-07T14:06:44;95535.57;;;29.44;43.09
31873;BME280;22407;42.820;23.374;2022-08-07T14:09:25;95543.50;;;28.77;45.01
31873;BME280;22407;42.820;23.374;2022-08-07T14:12:02;95547.28;;;28.37;46.57
31873;BME280;22407;42.820;23.374;2022-08-07T14:14:52;95544.05;;;27.86;48.67
31873;BME280;22407;42.820;23.374;2022-08-07T14:17:23;95545.73;;;27.76;48.94
31873;BME280;22407;42.820;23.374;2022-08-07T14:20:17;95533.77;;;27.62;49.89
31873;BME280;22407;42.820;23.374;2022-08-07T14:22:31;95540.56;;;27.77;50.17
31873;BME280;22407;42.820;23.374;2022-08-07T14:25:09;95531.02;;;27.91;50.02
31873;BME280;22407;42.820;23.374;2022-08-07T14:27:40;95525.89;;;28.12;49.25
31873;BME280;22407;42.820;23.374;2022-08-07T14:30:09;95523.70;;;28.28;48.65
31873;BME280;22407;42.820;23.374;2022-08-07T14:32:41;95527.09;;;28.38;48.39
31873;BME280;22407;42.820;23.374;2022-08-07T14:35:27;95523.36;;;28.44;49.49
31873;BME280;22407;42.820;23.374;2022-08-07T14:37:58;95517.66;;;28.45;49.39
31873;BME280;22407;42.820;23.374;2022-08-07T14:40:29;95527.13;;;28.04;50.34
31873;BME280;22407;42.820;23.374;2022-08-07T14:43:08;95527.34;;;27.85;51.69
31873;BME280;22407;42.820;23.374;2022-08-07T14:45:46;95522.70;;;28.00;51.54
31873;BME280;22407;42.820;23.374;2022-08-07T14:48:21;95523.07;;;28.06;51.31
31873;BME280;22407;42.820;23.374;2022-08-07T14:50:53;95521.02;;;28.14;51.20
31873;BME280;22407;42.820;23.374;2022-08-07T14:53:24;95516.41;;;28.36;50.27
31873;BME280;22407;42.820;23.374;2022-08-07T14:55:55;95517.75;;;28.34;50.99
31873;BME280;22407;42.820;23.374;2022-08-07T14:58:26;95518.65;;;28.56;50.29
31873;BME280;22407;42.820;23.374;2022-08-07T15:00:57;95516.91;;;28.69;50.15
31873;BME280;22407;42.820;23.374;2022-08-07T15:03:27;95508.09;;;28.62;50.24
31873;BME280;22407;42.820;23.374;2022-08-07T15:05:57;95512.20;;;28.65;50.87
31873;BME280;22407;42.820;23.374;2022-08-07T15:08:37;95511.98;;;28.69;47.09
31873;BME280;22407;42.820;23.374;2022-08-07T15:11:13;95511.11;;;28.85;47.47
31873;BME280;22407;42.820;23.374;2022-08-07T15:13:55;95505.02;;;29.03;47.49
31873;BME280;22407;42.820;23.374;2022-08-07T15:19:07;95491.70;;;30.23;46.93
31873;BME280;22407;42.820;23.374;2022-08-07T15:21:41;95498.88;;;30.82;45.63
31873;BME280;22407;42.820;23.374;2022-08-07T15:24:23;95493.00;;;31.16;44.41
31873;BME280;22407;42.820;23.374;2022-08-07T15:26:43;95488.17;;;31.56;44.00
31873;BME280;22407;42.820;23.374;2022-08-07T15:29:14;95476.41;;;31.97;43.03
31873;BME280;22407;42.820;23.374;2022-08-07T15:31:46;95480.23;;;32.29;41.73
31873;BME280;22407;42.820;23.374;2022-08-07T15:34:17;95480.78;;;31.64;42.55
31873;BME280;22407;42.820;23.374;2022-08-07T15:36:46;95483.64;;;31.01;44.54